createdAt,value
2022-12-10T00:01:50.446Z,43.95
2022-12-10T00:04:17.870Z,49.90
2022-12-10T00:06:45.577Z,46.38
2022-12-10T00:09:18.733Z,46.03
2022-12-10T00:11:45.879Z,45.00
2022-12-10T00:14:14.982Z,45.50
2022-12-10T00:16:42.577Z,46.75
2022-12-10T00:19:10.255Z,45.03
2022-12-10T00:21:38.829Z,47.83
2022-12-10T00:24:06.788Z,43.45
2022-12-10T00:26:38.167Z,44.13
2022-12-10T00:29:07.554Z,46.30
2022-12-10T00:31:37.528Z,44.13
2022-12-10T00:34:08.164Z,44.95
2022-12-10T00:36:45.242Z,47.67
2022-12-10T00:39:17.265Z,47.15
2022-12-10T00:41:45.435Z,42.72
2022-12-10T00:44:12.607Z,46.00
2022-12-10T00:46:40.312Z,44.60
2022-12-10T00:49:09.544Z,47.75
2022-12-10T00:51:36.760Z,45.63
2022-12-10T00:54:04.326Z,44.35
2022-12-10T00:56:39.213Z,43.25
2022-12-10T00:59:06.351Z,42.83
2022-12-10T01:01:38.014Z,43.88
2022-12-10T01:04:10.980Z,46.83
2022-12-10T01:06:50.560Z,41.95
2022-12-10T01:09:21.116Z,45.33
2022-12-10T01:11:50.908Z,42.15
2022-12-10T01:14:26.056Z,43.15
2022-12-10T01:17:00.965Z,50.47
2022-12-10T01:19:28.363Z,46.63
2022-12-10T01:21:56.860Z,43.83
2022-12-10T01:24:27.411Z,43.35
2022-12-10T01:26:58.070Z,46.92
2022-12-10T01:29:26.151Z,47.55
2022-12-10T01:31:56.549Z,44.28
2022-12-10T01:34:25.041Z,43.97
2022-12-10T01:36:55.859Z,46.58
2022-12-10T01:39:24.362Z,47.92
2022-12-10T01:42:00.139Z,44.30
2022-12-10T01:44:27.083Z,43.28
2022-12-10T01:46:57.945Z,41.78
2022-12-10T01:49:43.657Z,43.78
2022-12-10T01:52:13.779Z,44.75
2022-12-10T01:54:45.760Z,44.33
2022-12-10T01:57:17.228Z,44.78
2022-12-10T01:59:50.189Z,43.10
2022-12-10T02:02:42.109Z,44.95
2022-12-10T02:05:21.295Z,41.17
2022-12-10T02:08:24.766Z,43.78
2022-12-10T02:11:12.303Z,47.17
2022-12-10T02:13:53.421Z,46.08
2022-12-10T02:16:31.595Z,43.40
2022-12-10T02:19:12.194Z,48.30
2022-12-10T02:21:43.104Z,44.20
2022-12-10T02:24:18.050Z,47.17
2022-12-10T02:27:17.984Z,44.00
2022-12-10T02:29:50.230Z,45.22
2022-12-10T02:32:31.284Z,42.80
2022-12-10T02:35:08.178Z,46.97
2022-12-10T02:38:07.160Z,45.72
2022-12-10T02:40:38.329Z,44.35
2022-12-10T02:43:13.892Z,44.63
2022-12-10T02:45:44.713Z,47.95
2022-12-10T02:48:14.994Z,44.25
2022-12-10T02:50:44.105Z,47.67
2022-12-10T02:53:11.665Z,51.13
2022-12-10T02:56:21.867Z,49.10
2022-12-10T02:59:28.016Z,51.65
2022-12-10T03:05:21.862Z,47.90
2022-12-10T03:08:21.268Z,51.40
2022-12-10T03:11:08.562Z,47.90
2022-12-10T03:13:47.687Z,49.10
2022-12-10T03:16:17.360Z,52.90
2022-12-10T03:18:47.542Z,51.25
2022-12-10T03:21:17.432Z,49.05
2022-12-10T03:23:48.080Z,52.10
2022-12-10T03:26:17.036Z,51.25
2022-12-10T03:28:53.379Z,49.55
2022-12-10T03:31:22.379Z,55.30
2022-12-10T03:33:50.191Z,54.15
2022-12-10T03:36:19.827Z,56.08
2022-12-10T03:38:47.273Z,54.28
2022-12-10T03:41:14.594Z,56.67
2022-12-10T03:43:55.919Z,54.00
2022-12-10T03:46:25.069Z,55.22
2022-12-10T03:48:52.624Z,56.28
2022-12-10T03:51:21.236Z,57.15
2022-12-10T03:53:51.228Z,56.83
2022-12-10T03:56:19.957Z,60.67
2022-12-10T03:58:47.687Z,55.83
2022-12-10T04:01:16.130Z,62.60
2022-12-10T04:03:44.646Z,57.03
2022-12-10T04:06:19.608Z,59.42
2022-12-10T04:08:47.688Z,61.53
2022-12-10T04:11:16.401Z,60.17
2022-12-10T04:14:02.464Z,60.13
2022-12-10T04:16:31.675Z,63.42
2022-12-10T04:19:08.899Z,62.22
2022-12-10T04:21:57.485Z,64.05
2022-12-10T04:24:47.053Z,68.65
2022-12-10T04:27:35.174Z,64.40
2022-12-10T04:30:02.714Z,58.63
2022-12-10T04:32:31.304Z,64.82
2022-12-10T04:34:58.527Z,60.50
2022-12-10T04:37:26.434Z,63.50
2022-12-10T04:39:54.048Z,65.93
2022-12-10T04:42:23.443Z,61.60
2022-12-10T04:44:50.775Z,63.63
2022-12-10T04:47:18.145Z,61.85
2022-12-10T04:49:45.320Z,63.70
2022-12-10T04:52:14.859Z,69.57
2022-12-10T04:54:43.474Z,63.60
2022-12-10T04:57:12.092Z,69.90
2022-12-10T04:59:40.867Z,66.32
2022-12-10T05:02:08.489Z,63.58
2022-12-10T05:04:35.956Z,67.47
2022-12-10T05:07:03.259Z,69.90
2022-12-10T05:09:31.596Z,66.72
2022-12-10T05:11:58.654Z,64.93
2022-12-10T05:14:26.153Z,66.47
2022-12-10T05:16:53.559Z,66.40
2022-12-10T05:19:22.812Z,64.78
2022-12-10T05:22:09.304Z,68.72
2022-12-10T05:24:36.883Z,68.50
2022-12-10T05:27:04.269Z,71.75
2022-12-10T05:29:31.350Z,70.03
2022-12-10T05:31:58.974Z,65.07
2022-12-10T05:34:26.023Z,67.20
2022-12-10T05:36:54.619Z,67.05
2022-12-10T05:39:21.855Z,69.00
2022-12-10T05:41:49.222Z,65.55
2022-12-10T05:44:17.493Z,68.95
2022-12-10T05:46:44.497Z,69.45
2022-12-10T05:49:11.617Z,66.70
2022-12-10T05:51:39.426Z,65.47
2022-12-10T05:54:08.005Z,67.65
2022-12-10T05:56:37.302Z,70.38
2022-12-10T05:59:06.496Z,70.00
2022-12-10T06:01:38.808Z,62.83
2022-12-10T06:04:07.143Z,68.05
2022-12-10T06:06:38.289Z,69.15
2022-12-10T06:09:08.218Z,65.53
2022-12-10T06:11:35.483Z,65.20
2022-12-10T06:14:03.419Z,65.28
2022-12-10T06:16:30.937Z,67.90
2022-12-10T06:18:58.468Z,64.28
2022-12-10T06:21:26.039Z,66.47
2022-12-10T06:23:54.301Z,62.65
2022-12-10T06:26:26.739Z,64.22
2022-12-10T06:28:55.189Z,65.68
2022-12-10T06:31:23.937Z,68.28
2022-12-10T06:33:53.023Z,66.38
2022-12-10T06:36:20.661Z,64.97
2022-12-10T06:38:48.526Z,69.07
2022-12-10T06:41:18.414Z,69.07
2022-12-10T06:43:45.514Z,62.45
2022-12-10T06:46:15.771Z,68.85
2022-12-10T06:48:43.798Z,67.50
2022-12-10T06:51:13.311Z,68.10
2022-12-10T06:53:41.562Z,66.60
2022-12-10T06:56:15.050Z,61.95
2022-12-10T06:58:43.274Z,64.78
2022-12-10T07:01:27.353Z,65.78
2022-12-10T07:03:57.395Z,69.50
2022-12-10T07:06:26.550Z,62.85
2022-12-10T07:08:53.721Z,68.47
2022-12-10T07:11:23.293Z,69.20
2022-12-10T07:13:52.814Z,69.60
2022-12-10T07:16:30.072Z,67.35
2022-12-10T07:19:00.203Z,62.10
2022-12-10T07:21:32.934Z,64.63
2022-12-10T07:24:07.364Z,68.40
2022-12-10T07:26:37.709Z,68.63
2022-12-10T07:29:08.841Z,66.40
2022-12-10T07:31:37.309Z,71.88
2022-12-10T07:34:04.663Z,66.75
2022-12-10T07:36:31.744Z,62.22
2022-12-10T07:38:58.883Z,68.00
2022-12-10T07:41:26.878Z,68.93
2022-12-10T07:43:54.542Z,64.68
2022-12-10T07:46:26.347Z,65.80
2022-12-10T07:48:54.145Z,70.32
2022-12-10T07:51:23.532Z,63.45
2022-12-10T07:53:54.560Z,71.07
2022-12-10T07:56:23.564Z,68.68
2022-12-10T07:58:53.696Z,65.22
2022-12-10T08:01:32.856Z,67.75
2022-12-10T08:04:00.115Z,68.45
2022-12-10T08:06:29.790Z,70.85
2022-12-10T08:09:00.242Z,63.22
2022-12-10T08:11:29.616Z,66.65
2022-12-10T08:13:57.926Z,66.55
2022-12-10T08:16:29.644Z,62.75
2022-12-10T08:19:00.173Z,68.18
2022-12-10T08:21:33.126Z,64.18
2022-12-10T08:24:01.225Z,65.88
2022-12-10T08:26:32.529Z,61.05
2022-12-10T08:29:00.725Z,63.45
2022-12-10T08:31:34.366Z,62.22
2022-12-10T08:34:06.040Z,60.08
2022-12-10T08:36:33.477Z,64.65
2022-12-10T08:39:01.036Z,68.18
2022-12-10T08:41:28.523Z,56.13
2022-12-10T08:43:56.317Z,65.45
2022-12-10T08:46:24.246Z,61.17
2022-12-10T08:48:51.440Z,62.10
2022-12-10T08:51:20.376Z,60.15
2022-12-10T08:53:47.926Z,59.22
2022-12-10T08:56:15.722Z,57.10
2022-12-10T08:58:43.796Z,59.13
2022-12-10T09:01:18.342Z,60.92
2022-12-10T09:03:46.307Z,60.28
2022-12-10T09:06:17.867Z,60.35
2022-12-10T09:08:45.080Z,63.33
2022-12-10T09:11:29.380Z,59.90
2022-12-10T09:13:56.894Z,60.05
2022-12-10T09:16:35.684Z,60.28
2022-12-10T09:19:05.525Z,59.40
2022-12-10T09:21:33.688Z,58.83
2022-12-10T09:24:00.990Z,58.00
2022-12-10T09:26:28.774Z,63.67
2022-12-10T09:28:56.548Z,60.72
2022-12-10T09:31:23.887Z,62.42
2022-12-10T09:33:53.620Z,65.40
2022-12-10T09:36:22.320Z,57.92
2022-12-10T09:38:50.832Z,61.15
2022-12-10T09:41:57.580Z,65.03
2022-12-10T09:44:56.787Z,63.67
2022-12-10T09:47:57.793Z,58.33
2022-12-10T09:50:37.921Z,62.80
2022-12-10T09:53:10.371Z,64.47
2022-12-10T09:55:44.108Z,62.80
2022-12-10T09:58:24.966Z,67.32
2022-12-10T10:01:07.351Z,70.20
2022-12-10T10:03:41.797Z,68.60
2022-12-10T10:06:14.720Z,64.07
2022-12-10T10:08:47.719Z,70.20
2022-12-10T10:11:31.023Z,70.82
2022-12-10T10:14:09.959Z,73.70
2022-12-10T10:16:46.533Z,73.43
2022-12-10T10:19:27.062Z,68.82
2022-12-10T10:21:57.380Z,67.88
2022-12-10T10:24:40.003Z,68.57
2022-12-10T10:27:29.889Z,72.75
2022-12-10T10:30:02.626Z,62.47
2022-12-10T10:32:50.242Z,57.78
2022-12-10T10:35:50.305Z,60.38
2022-12-10T10:38:21.917Z,54.25
2022-12-10T10:40:55.670Z,58.45
2022-12-10T10:43:32.957Z,57.88
2022-12-10T10:46:07.860Z,60.00
2022-12-10T10:48:34.937Z,50.67
2022-12-10T10:51:28.468Z,56.22
2022-12-10T10:53:57.342Z,56.00
2022-12-10T10:56:30.374Z,54.05
2022-12-10T10:59:08.061Z,54.50
2022-12-10T11:01:48.365Z,50.83
2022-12-10T11:04:18.198Z,56.20
2022-12-10T11:06:46.488Z,53.90
2022-12-10T11:09:26.263Z,50.65
2022-12-10T11:12:01.551Z,55.10
2022-12-10T11:14:38.324Z,54.13
2022-12-10T11:17:13.727Z,51.65
2022-12-10T11:19:59.961Z,58.25
2022-12-10T11:22:33.763Z,59.15
2022-12-10T11:25:01.999Z,53.08
2022-12-10T11:27:58.762Z,59.95
2022-12-10T11:30:27.849Z,57.80
2022-12-10T11:33:13.641Z,52.63
2022-12-10T11:36:08.487Z,52.33
2022-12-10T11:42:09.885Z,46.58
2022-12-10T11:44:48.647Z,50.22
2022-12-10T11:47:24.355Z,51.45
2022-12-10T11:50:15.486Z,44.80
2022-12-10T11:53:23.019Z,44.25
2022-12-10T11:56:28.311Z,46.35
2022-12-10T12:01:49.851Z,46.70
2022-12-10T12:05:03.034Z,42.95
2022-12-10T12:07:54.450Z,48.75
2022-12-10T12:10:25.820Z,47.95
2022-12-10T12:13:14.403Z,50.13
2022-12-10T12:16:21.749Z,48.30
2022-12-10T12:18:57.350Z,47.72
2022-12-10T12:21:24.825Z,50.30
2022-12-10T12:24:04.280Z,50.60
2022-12-10T12:26:43.338Z,50.63
2022-12-10T12:29:35.754Z,51.67
2022-12-10T12:32:19.235Z,51.90
2022-12-10T12:35:11.771Z,53.55
2022-12-10T12:37:59.515Z,51.03
2022-12-10T12:40:43.050Z,54.60
2022-12-10T12:43:17.706Z,57.40
2022-12-10T12:48:30.353Z,50.00
2022-12-10T12:51:03.574Z,53.75
2022-12-10T12:53:35.226Z,50.20
2022-12-10T12:56:18.998Z,50.88
2022-12-10T12:58:50.163Z,51.40
2022-12-10T13:01:44.917Z,51.05
2022-12-10T13:04:12.586Z,47.28
2022-12-10T13:06:45.684Z,47.10
2022-12-10T13:09:12.647Z,45.42
2022-12-10T13:11:55.281Z,44.97
2022-12-10T13:14:35.106Z,47.38
2022-12-10T13:17:28.509Z,45.60
2022-12-10T13:20:28.106Z,48.78
2022-12-10T13:23:25.836Z,43.72
2022-12-10T13:25:58.713Z,42.88
2022-12-10T13:28:52.317Z,43.10
2022-12-10T13:31:57.093Z,44.33
2022-12-10T13:34:41.394Z,42.40
2022-12-10T13:37:14.558Z,37.42
2022-12-10T13:40:12.033Z,37.13
2022-12-10T13:43:03.839Z,37.53
2022-12-10T13:45:35.833Z,37.35
2022-12-10T13:48:32.247Z,40.10
2022-12-10T13:51:05.334Z,35.15
2022-12-10T13:54:20.171Z,39.17
2022-12-10T13:57:10.439Z,38.75
2022-12-10T14:00:08.014Z,36.22
2022-12-10T14:03:35.286Z,33.28
2022-12-10T14:06:19.108Z,35.45
2022-12-10T14:09:18.356Z,35.72
2022-12-10T14:12:32.615Z,33.60
2022-12-10T14:15:26.065Z,35.63
2022-12-10T14:18:15.222Z,36.17
2022-12-10T14:20:48.452Z,32.70
2022-12-10T14:23:46.303Z,35.03
2022-12-10T14:26:22.438Z,35.95
2022-12-10T14:28:56.757Z,34.10
2022-12-10T14:34:05.730Z,29.98
2022-12-10T14:36:40.949Z,30.83
2022-12-10T14:39:21.567Z,33.53
2022-12-10T14:41:52.300Z,33.05
2022-12-10T14:44:20.438Z,30.98
2022-12-10T14:46:51.321Z,29.83
2022-12-10T14:49:24.612Z,33.10
2022-12-10T14:51:52.898Z,33.80
2022-12-10T14:54:32.565Z,30.27
2022-12-10T14:57:09.985Z,31.55
2022-12-10T14:59:45.934Z,35.35
2022-12-10T15:02:36.214Z,35.90
2022-12-10T15:05:06.540Z,32.50
2022-12-10T15:07:37.860Z,36.90
2022-12-10T15:10:20.377Z,39.83
2022-12-10T15:12:51.055Z,36.83
2022-12-10T15:15:25.880Z,37.90
2022-12-10T15:18:00.278Z,37.75
2022-12-10T15:20:50.843Z,35.17
2022-12-10T15:23:29.809Z,38.90
2022-12-10T15:26:29.699Z,40.67
2022-12-10T15:29:27.510Z,41.47
2022-12-10T15:32:21.623Z,43.35
2022-12-10T15:34:55.192Z,40.75
2022-12-10T15:37:40.139Z,44.75
2022-12-10T15:40:30.948Z,47.15
2022-12-10T15:43:13.939Z,45.90
2022-12-10T15:45:44.031Z,45.47
2022-12-10T15:48:14.167Z,51.30
2022-12-10T15:50:44.330Z,46.80
2022-12-10T15:53:14.470Z,51.22
2022-12-10T15:55:42.012Z,43.60
2022-12-10T15:58:14.778Z,53.90
2022-12-10T16:00:45.295Z,57.72
2022-12-10T16:03:16.477Z,61.17
2022-12-10T16:05:46.275Z,64.15
2022-12-10T16:08:22.538Z,65.35
2022-12-10T16:10:52.866Z,68.07
2022-12-10T16:13:24.513Z,64.53
2022-12-10T16:16:04.117Z,69.38
2022-12-10T16:18:34.587Z,65.55
2022-12-10T16:21:02.476Z,67.90
2022-12-10T16:23:29.812Z,65.80
2022-12-10T16:25:57.679Z,65.28
2022-12-10T16:28:26.399Z,65.70
2022-12-10T16:30:57.137Z,64.75
2022-12-10T16:33:26.781Z,69.18
2022-12-10T16:35:56.428Z,60.15
2022-12-10T16:38:25.338Z,60.33
2022-12-10T16:40:53.093Z,57.08
2022-12-10T16:43:26.279Z,54.33
2022-12-10T16:45:54.595Z,59.20
2022-12-10T16:48:23.236Z,59.75
2022-12-10T16:50:53.184Z,62.40
2022-12-10T16:53:26.719Z,56.50
2022-12-10T16:55:56.846Z,61.20
2022-12-10T16:58:25.702Z,63.33
2022-12-10T17:00:55.393Z,61.35
2022-12-10T17:03:26.807Z,75.72
2022-12-10T17:05:57.730Z,68.30
2022-12-10T17:08:27.254Z,63.53
2022-12-10T17:11:15.227Z,54.55
2022-12-10T17:13:45.059Z,65.85
2022-12-10T17:16:23.028Z,57.92
2022-12-10T17:18:51.188Z,55.08
2022-12-10T17:21:18.788Z,56.15
2022-12-10T17:23:46.016Z,57.10
2022-12-10T17:26:32.947Z,55.63
2022-12-10T17:29:23.497Z,58.78
2022-12-10T17:31:51.794Z,57.20
2022-12-10T17:34:24.575Z,56.72
2022-12-10T17:36:52.800Z,53.15
2022-12-10T17:39:23.236Z,55.70
2022-12-10T17:41:50.670Z,55.60
2022-12-10T17:44:18.747Z,54.05
2022-12-10T17:46:46.034Z,50.22
2022-12-10T17:49:15.212Z,43.13
2022-12-10T17:51:43.846Z,43.72
2022-12-10T17:54:10.889Z,47.35
2022-12-10T17:56:39.071Z,46.58
2022-12-10T17:59:07.421Z,45.70
2022-12-10T18:01:34.842Z,43.45
2022-12-10T18:04:01.977Z,47.25
2022-12-10T18:06:30.660Z,53.25
2022-12-10T18:09:01.709Z,46.00
2022-12-10T18:11:33.708Z,50.78
2022-12-10T18:14:01.632Z,46.88
2022-12-10T18:16:35.696Z,48.08
2022-12-10T18:21:34.973Z,43.17
2022-12-10T18:24:02.366Z,49.38
2022-12-10T18:26:30.350Z,48.40
2022-12-10T18:29:00.191Z,46.97
2022-12-10T18:31:34.944Z,51.35
2022-12-10T18:34:08.511Z,45.17
2022-12-10T18:36:39.456Z,48.30
2022-12-10T18:39:26.505Z,47.10
2022-12-10T18:41:54.638Z,47.42
2022-12-10T18:44:25.510Z,53.10
2022-12-10T18:46:56.343Z,53.70
2022-12-10T18:49:24.859Z,50.20
2022-12-10T18:51:52.398Z,52.40
2022-12-10T18:54:20.136Z,51.08
2022-12-10T18:57:09.558Z,54.40
2022-12-10T18:59:34.897Z,61.30
2022-12-10T19:02:02.857Z,58.45
2022-12-10T19:04:29.944Z,54.30
2022-12-10T19:06:57.604Z,59.95
2022-12-10T19:09:29.303Z,62.92
2022-12-10T19:12:02.005Z,63.67
2022-12-10T19:14:29.166Z,69.47
2022-12-10T19:16:56.315Z,64.72
2022-12-10T19:19:23.360Z,77.40
2022-12-10T19:21:50.447Z,78.57
2022-12-10T19:24:17.550Z,99.50
2022-12-10T19:26:44.677Z,84.32
2022-12-10T19:29:18.099Z,85.78
2022-12-10T19:31:46.439Z,88.10
2022-12-10T19:34:16.329Z,90.47
2022-12-10T19:36:43.974Z,85.32
2022-12-10T19:39:25.299Z,93.88
2022-12-10T19:41:55.388Z,77.93
2022-12-10T19:44:23.011Z,78.53
2022-12-10T19:46:51.152Z,84.55
2022-12-10T19:49:20.151Z,82.68
2022-12-10T19:51:48.704Z,74.45
2022-12-10T19:54:16.728Z,87.55
2022-12-10T19:56:44.320Z,107.45
2022-12-10T19:59:20.804Z,99.35
2022-12-10T20:01:48.623Z,90.10
2022-12-10T20:04:17.114Z,117.18
2022-12-10T20:06:47.334Z,117.72
2022-12-10T20:09:24.132Z,94.75
2022-12-10T20:11:51.582Z,108.13
2022-12-10T20:14:20.270Z,105.30
2022-12-10T20:16:51.279Z,88.18
2022-12-10T20:19:24.067Z,96.22
2022-12-10T20:21:52.549Z,95.90
2022-12-10T20:24:20.248Z,127.35
2022-12-10T20:26:49.661Z,101.47
2022-12-10T20:29:23.801Z,139.45
2022-12-10T20:31:54.471Z,102.10
2022-12-10T20:34:22.860Z,108.55
2022-12-10T20:36:50.872Z,110.82
2022-12-10T20:39:22.327Z,121.07
2022-12-10T20:41:51.364Z,121.72
2022-12-10T20:44:19.451Z,122.07
2022-12-10T20:46:48.421Z,117.53
2022-12-10T20:49:18.688Z,111.35
2022-12-10T20:51:46.848Z,111.35
2022-12-10T20:54:14.293Z,116.93
2022-12-10T20:56:41.897Z,104.95
2022-12-10T20:59:13.420Z,104.50
2022-12-10T21:01:40.821Z,92.20
2022-12-10T21:04:08.002Z,96.88
2022-12-10T21:06:35.143Z,97.57
2022-12-10T21:09:02.490Z,103.35
2022-12-10T21:11:29.912Z,97.45
2022-12-10T21:13:57.050Z,97.55
2022-12-10T21:16:25.967Z,109.95
2022-12-10T21:18:54.292Z,94.00
2022-12-10T21:21:24.379Z,125.55
2022-12-10T21:23:51.605Z,98.55
2022-12-10T21:26:18.725Z,127.93
2022-12-10T21:28:46.206Z,117.18
2022-12-10T21:31:20.924Z,82.55
2022-12-10T21:33:48.951Z,96.75
2022-12-10T21:36:18.895Z,100.60
2022-12-10T21:38:46.003Z,101.47
2022-12-10T21:41:42.459Z,86.38
2022-12-10T21:44:11.029Z,103.20
2022-12-10T21:46:40.198Z,105.47
2022-12-10T21:49:08.551Z,106.22
2022-12-10T21:51:40.039Z,112.47
2022-12-10T21:54:08.780Z,93.93
2022-12-10T21:56:36.726Z,97.95
2022-12-10T21:59:04.344Z,88.80
2022-12-10T22:01:32.069Z,102.82
2022-12-10T22:03:59.245Z,110.47
2022-12-10T22:06:29.327Z,108.38
2022-12-10T22:08:57.368Z,109.05
2022-12-10T22:11:24.644Z,104.07
2022-12-10T22:13:55.859Z,101.82
2022-12-10T22:16:23.210Z,85.55
2022-12-10T22:18:50.656Z,94.82
2022-12-10T22:21:23.501Z,96.40
2022-12-10T22:23:54.940Z,88.93
2022-12-10T22:26:23.317Z,87.28
2022-12-10T22:28:51.275Z,93.95
2022-12-10T22:31:20.002Z,87.30
2022-12-10T22:33:47.589Z,94.47
2022-12-10T22:36:15.450Z,82.85
2022-12-10T22:38:42.614Z,82.82
2022-12-10T22:41:10.276Z,81.63
2022-12-10T22:43:53.481Z,88.70
2022-12-10T22:46:21.925Z,83.93
2022-12-10T22:48:49.144Z,80.45
2022-12-10T22:51:16.794Z,74.82
2022-12-10T22:53:43.998Z,82.45
2022-12-10T22:56:14.199Z,81.88
2022-12-10T22:58:41.984Z,88.25
2022-12-10T23:01:20.319Z,78.20
2022-12-10T23:03:50.540Z,83.63
2022-12-10T23:06:18.513Z,80.22
2022-12-10T23:08:45.789Z,84.55
2022-12-10T23:11:15.912Z,81.72
2022-12-10T23:13:43.980Z,66.25
2022-12-10T23:16:14.849Z,77.15
2022-12-10T23:18:43.376Z,71.57
2022-12-10T23:21:21.528Z,82.88
2022-12-10T23:23:49.279Z,77.28
2022-12-10T23:26:17.375Z,79.38
2022-12-10T23:28:45.618Z,74.80
2022-12-10T23:31:14.268Z,72.93
2022-12-10T23:33:41.481Z,75.22
2022-12-10T23:36:10.434Z,71.00
2022-12-10T23:38:38.995Z,71.93
2022-12-10T23:41:11.847Z,74.50
2022-12-10T23:43:39.581Z,68.75
2022-12-10T23:46:08.605Z,60.85
2022-12-10T23:48:35.931Z,68.47
2022-12-10T23:51:03.247Z,65.78
2022-12-10T23:53:30.981Z,65.72
2022-12-10T23:55:58.386Z,70.05
2022-12-10T23:58:25.945Z,59.28
